Time;durP1;ratioP1;P1;durP2;ratioP2;P2;SDS_P1;SDS_P2;PMS_P1;PMS_P2;Temp;Humidity;BMP_temperature;BMP_pressure;BME280_temperature;BME280_humidity;BME280_pressure;Samples;Min_cycle;Max_cycle;Signal;HPM_P1;HPM_P2
2021/09/29 00:00:42;;;;;;;13.02;8.90;;;10.90;99.90;;;;;;5094284;28;20074;-67
2021/09/29 00:03:08;;;;;;;23.48;10.27;;;10.90;99.90;;;;;;5094222;28;20077;-66
2021/09/29 00:05:34;;;;;;;20.85;10.70;;;10.80;99.90;;;;;;5094141;28;20354;-66
2021/09/29 00:08:00;;;;;;;15.00;9.88;;;10.80;99.90;;;;;;5094126;28;20057;-67
2021/09/29 00:10:25;;;;;;;21.55;10.57;;;10.80;99.90;;;;;;5093511;28;20420;-67
2021/09/29 00:12:51;;;;;;;19.45;10.32;;;10.80;99.90;;;;;;5094175;28;20040;-67
2021/09/29 00:15:17;;;;;;;18.73;10.95;;;10.80;99.90;;;;;;5094073;28;20024;-66
2021/09/29 00:17:45;;;;;;;18.33;9.35;;;10.80;99.90;;;;;;5092929;28;20450;-67
2021/09/29 00:20:12;;;;;;;19.67;10.63;;;10.70;99.90;;;;;;5094040;28;20020;-67
2021/09/29 00:22:39;;;;;;;24.40;11.73;;;10.70;99.90;;;;;;5094042;28;20020;-67
2021/09/29 00:25:07;;;;;;;23.88;11.70;;;10.70;99.90;;;;;;5093776;28;20020;-67
2021/09/29 00:27:33;;;;;;;21.98;11.35;;;10.70;99.90;;;;;;5094041;28;20044;-67
2021/09/29 00:30:04;;;;;;;18.63;10.77;;;10.70;99.90;;;;;;5093431;28;20354;-66
2021/09/29 00:32:30;;;;;;;22.52;11.52;;;10.70;99.90;;;;;;5093652;28;20024;-67
2021/09/29 00:34:55;;;;;;;18.08;10.23;;;10.70;99.90;;;;;;5092472;28;20096;-67
2021/09/29 00:37:21;;;;;;;18.23;10.82;;;10.70;99.90;;;;;;5093910;28;20028;-67
2021/09/29 00:39:46;;;;;;;24.13;12.13;;;10.60;99.90;;;;;;5093906;28;20032;-66
2021/09/29 00:42:12;;;;;;;21.08;11.45;;;10.70;99.90;;;;;;5093613;28;20031;-67
2021/09/29 00:44:37;;;;;;;18.67;10.90;;;10.60;99.90;;;;;;5093846;28;20492;-67
2021/09/29 00:47:03;;;;;;;20.13;10.93;;;10.60;99.90;;;;;;5093525;28;20465;-67
2021/09/29 00:49:29;;;;;;;16.85;9.88;;;10.60;99.90;;;;;;5093538;28;20032;-67
2021/09/29 00:51:56;;;;;;;26.52;10.55;;;10.60;99.90;;;;;;5093412;28;20028;-67
2021/09/29 00:54:27;;;;;;;20.15;10.68;;;10.60;99.90;;;;;;5093481;28;20020;-66
2021/09/29 00:56:52;;;;;;;18.13;10.02;;;10.60;99.90;;;;;;5093499;28;20023;-67
2021/09/29 00:59:18;;;;;;;26.65;11.35;;;10.60;99.90;;;;;;5093705;28;20390;-66
2021/09/29 01:01:45;;;;;;;20.40;10.68;;;10.60;99.90;;;;;;5093414;28;20066;-67
2021/09/29 01:04:11;;;;;;;19.27;10.75;;;10.60;99.90;;;;;;5092529;28;20023;-67
2021/09/29 01:06:43;;;;;;;24.73;11.73;;;10.60;99.90;;;;;;5093644;28;20024;-66
2021/09/29 01:09:20;;;;;;;20.55;10.80;;;10.60;99.90;;;;;;5093616;28;20024;-66
2021/09/29 01:11:58;;;;;;;21.73;11.13;;;10.50;99.90;;;;;;5091686;28;20115;-67
2021/09/29 01:14:47;;;;;;;24.27;11.50;;;10.50;99.90;;;;;;5093568;28;20032;-67
2021/09/29 01:17:18;;;;;;;19.25;10.85;;;10.50;99.90;;;;;;5092884;28;20059;-67
2021/09/29 01:20:01;;;;;;;19.98;10.85;;;10.60;99.90;;;;;;5096383;28;20383;-67
2021/09/29 01:22:43;;;;;;;15.60;9.23;;;10.60;99.90;;;;;;5096958;28;20024;-66
2021/09/29 01:25:21;;;;;;;19.23;10.95;;;10.60;99.90;;;;;;5097139;28;20024;-67
2021/09/29 01:27:49;;;;;;;23.52;11.18;;;10.60;99.90;;;;;;5096781;28;20020;-67
2021/09/29 01:30:14;;;;;;;19.73;10.45;;;10.60;99.90;;;;;;5096935;28;20107;-67
2021/09/29 01:32:40;;;;;;;16.42;9.32;;;10.60;99.90;;;;;;5096954;28;20418;-66
2021/09/29 01:35:06;;;;;;;17.92;10.40;;;10.50;99.90;;;;;;5096918;28;20018;-67
2021/09/29 01:37:33;;;;;;;20.45;10.45;;;10.50;99.90;;;;;;5096612;28;20107;-67
2021/09/29 01:39:59;;;;;;;16.98;9.95;;;10.50;99.90;;;;;;5096834;28;20016;-67
2021/09/29 01:42:24;;;;;;;17.23;9.75;;;10.50;99.90;;;;;;5096485;28;20089;-67
2021/09/29 01:44:50;;;;;;;16.27;9.75;;;10.50;99.90;;;;;;5096758;28;20019;-67
2021/09/29 01:47:15;;;;;;;17.55;10.27;;;10.50;99.90;;;;;;5095409;28;20449;-66
2021/09/29 01:49:46;;;;;;;17.30;9.68;;;10.50;99.90;;;;;;5096621;28;20024;-67
2021/09/29 01:52:14;;;;;;;15.20;10.02;;;10.50;99.90;;;;;;5096546;28;20054;-67
2021/09/29 01:54:45;;;;;;;19.27;9.95;;;10.60;99.90;;;;;;5096557;28;20099;-67
2021/09/29 01:57:11;;;;;;;17.50;9.27;;;10.50;99.90;;;;;;5096211;28;20020;-66
2021/09/29 01:59:38;;;;;;;17.23;10.10;;;10.50;99.90;;;;;;5095315;28;20069;-66
2021/09/29 02:02:04;;;;;;;16.70;9.93;;;10.50;99.90;;;;;;5094578;28;20035;-67
2021/09/29 02:04:30;;;;;;;19.30;10.52;;;10.50;99.90;;;;;;5096104;28;20024;-67
2021/09/29 02:06:57;;;;;;;19.20;10.00;;;10.50;99.90;;;;;;5096331;28;20373;-67
2021/09/29 02:09:25;;;;;;;16.52;10.55;;;10.50;99.90;;;;;;5096281;28;20058;-67
2021/09/29 02:11:53;;;;;;;19.73;10.75;;;10.50;99.90;;;;;;5095558;28;20044;-67
2021/09/29 02:14:20;;;;;;;17.40;10.32;;;10.50;99.90;;;;;;5096199;28;20097;-67
2021/09/29 02:16:47;;;;;;;16.77;9.95;;;10.50;99.90;;;;;;5096105;28;20028;-67
2021/09/29 02:19:13;;;;;;;24.73;10.07;;;10.50;99.90;;;;;;5095115;28;20514;-67
2021/09/29 02:21:41;;;;;;;18.35;10.68;;;10.50;99.90;;;;;;5095787;28;20484;-67
2021/09/29 02:24:07;;;;;;;17.48;9.98;;;10.50;99.90;;;;;;5095412;28;20030;-67
2021/09/29 02:26:34;;;;;;;19.30;11.23;;;10.50;99.90;;;;;;5095692;28;20070;-67
2021/09/29 02:29:00;;;;;;;16.42;9.32;;;10.60;99.90;;;;;;5095370;28;20020;-67
2021/09/29 02:31:26;;;;;;;19.20;10.20;;;10.50;99.90;;;;;;5095477;28;20546;-67
2021/09/29 02:33:51;;;;;;;19.38;10.13;;;10.50;99.90;;;;;;5077264;28;20020;-67
2021/09/29 02:36:17;;;;;;;15.93;9.60;;;10.50;99.90;;;;;;5095765;28;20027;-67
2021/09/29 02:38:43;;;;;;;16.98;9.70;;;10.50;99.90;;;;;;5095698;28;20525;-66
2021/09/29 02:41:11;;;;;;;19.38;9.75;;;10.50;99.90;;;;;;5095691;28;20377;-67
2021/09/29 02:43:37;;;;;;;24.70;10.25;;;10.40;99.90;;;;;;5095595;28;20077;-66
2021/09/29 02:46:03;;;;;;;19.65;10.07;;;10.40;99.90;;;;;;5094630;28;20032;-67
2021/09/29 02:48:29;;;;;;;18.70;10.30;;;10.40;99.90;;;;;;5095527;28;20032;-67
2021/09/29 02:50:55;;;;;;;22.55;10.50;;;10.30;99.90;;;;;;5095389;28;20027;-66
2021/09/29 02:53:21;;;;;;;23.52;10.27;;;10.30;99.90;;;;;;5095423;28;20069;-67
2021/09/29 02:55:47;;;;;;;17.60;9.90;;;10.30;99.90;;;;;;5095371;28;20020;-67
2021/09/29 02:58:12;;;;;;;19.23;10.10;;;10.30;99.90;;;;;;5095323;28;20020;-66
2021/09/29 03:00:38;;;;;;;19.02;10.57;;;10.30;99.90;;;;;;5095011;28;20020;-67
2021/09/29 03:03:04;;;;;;;18.58;9.43;;;10.30;99.90;;;;;;5095101;28;20483;-67
2021/09/29 03:05:29;;;;;;;18.40;9.57;;;10.30;99.90;;;;;;5095180;28;20028;-67
2021/09/29 03:07:55;;;;;;;18.98;9.93;;;10.30;99.90;;;;;;5095112;28;20099;-67
2021/09/29 03:10:20;;;;;;;16.85;9.32;;;10.30;99.90;;;;;;5094709;28;20089;-66
2021/09/29 03:12:46;;;;;;;19.52;10.25;;;10.30;99.90;;;;;;5094773;28;20074;-67
2021/09/29 03:15:14;;;;;;;18.27;9.45;;;10.30;99.90;;;;;;5094979;28;20104;-67
2021/09/29 03:17:40;;;;;;;21.38;10.23;;;10.30;99.90;;;;;;5093546;28;20016;-66
2021/09/29 03:20:06;;;;;;;18.83;9.77;;;10.30;99.90;;;;;;5094899;28;20046;-66
2021/09/29 03:22:32;;;;;;;16.17;9.80;;;10.30;99.90;;;;;;5093887;28;20028;-66
2021/09/29 03:24:58;;;;;;;16.63;10.00;;;10.30;99.90;;;;;;5094564;28;20097;-66
2021/09/29 03:27:23;;;;;;;21.48;10.13;;;10.40;99.90;;;;;;5094821;28;20432;-67
2021/09/29 03:29:49;;;;;;;21.58;10.70;;;10.40;99.90;;;;;;5094205;28;20040;-67
2021/09/29 03:32:14;;;;;;;18.77;9.60;;;10.40;99.90;;;;;;5093487;28;20027;-67
2021/09/29 03:34:40;;;;;;;24.77;9.90;;;10.40;99.90;;;;;;5094669;28;20032;-66
2021/09/29 03:37:05;;;;;;;21.20;9.27;;;10.40;99.90;;;;;;5094656;28;20496;-66
2021/09/29 03:39:31;;;;;;;15.00;9.27;;;10.40;99.90;;;;;;5094359;28;20020;-67
2021/09/29 03:41:57;;;;;;;16.73;9.68;;;10.50;99.90;;;;;;5093840;28;20028;-67
2021/09/29 03:44:22;;;;;;;18.05;9.48;;;10.40;99.90;;;;;;5093915;28;20039;-67
2021/09/29 03:46:48;;;;;;;16.25;8.93;;;10.50;99.90;;;;;;5092624;28;20035;-67
2021/09/29 03:49:13;;;;;;;18.85;9.77;;;10.40;99.90;;;;;;5093009;28;20056;-67
2021/09/29 03:51:39;;;;;;;15.82;9.45;;;10.40;99.90;;;;;;5094360;28;20031;-66
2021/09/29 03:54:04;;;;;;;15.02;9.63;;;10.40;99.90;;;;;;5094355;28;20020;-67
2021/09/29 03:56:30;;;;;;;19.85;9.25;;;10.40;99.90;;;;;;5094331;28;20091;-66
2021/09/29 03:58:56;;;;;;;13.60;8.68;;;10.40;99.90;;;;;;5094027;28;20052;-67
2021/09/29 04:01:21;;;;;;;20.25;9.80;;;10.40;99.90;;;;;;5093964;28;20024;-67
2021/09/29 04:03:47;;;;;;;22.75;9.77;;;10.40;99.90;;;;;;5094241;28;20020;-66
2021/09/29 04:06:12;;;;;;;17.70;9.35;;;10.40;99.90;;;;;;5094208;28;20091;-67
2021/09/29 04:08:38;;;;;;;17.60;8.85;;;10.30;99.90;;;;;;5094161;28;20028;-67
2021/09/29 04:11:06;;;;;;;16.48;9.20;;;10.30;99.90;;;;;;5093284;28;20044;-67
2021/09/29 04:13:32;;;;;;;18.60;9.50;;;10.30;99.90;;;;;;5093843;28;20024;-67
2021/09/29 04:15:57;;;;;;;22.10;9.05;;;10.30;99.90;;;;;;5093843;28;20510;-67
2021/09/29 04:18:23;;;;;;;22.38;9.48;;;10.30;99.90;;;;;;5094117;28;20710;-66
2021/09/29 04:20:48;;;;;;;19.92;9.82;;;10.30;99.90;;;;;;5093794;28;20028;-67
2021/09/29 04:23:14;;;;;;;27.40;10.38;;;10.20;99.90;;;;;;5094104;28;20032;-67
2021/09/29 04:25:41;;;;;;;16.20;9.15;;;10.20;99.90;;;;;;5094067;28;20354;-67
2021/09/29 04:28:07;;;;;;;15.65;8.82;;;10.20;99.90;;;;;;5094011;28;20029;-67
2021/09/29 04:30:33;;;;;;;20.65;9.57;;;10.10;99.90;;;;;;5093926;28;20020;-66
2021/09/29 04:33:00;;;;;;;17.33;9.00;;;10.10;99.90;;;;;;5093966;28;20031;-66
2021/09/29 04:35:26;;;;;;;16.85;9.05;;;10.10;99.90;;;;;;5092505;28;20012;-67
2021/09/29 04:37:52;;;;;;;15.18;8.85;;;10.10;99.90;;;;;;5093971;28;20443;-66
2021/09/29 04:40:18;;;;;;;18.05;8.95;;;10.00;99.90;;;;;;5093929;28;20346;-66
2021/09/29 04:42:43;;;;;;;14.13;9.23;;;10.00;99.90;;;;;;5092079;28;20057;-66
2021/09/29 04:45:09;;;;;;;19.80;9.57;;;10.00;99.90;;;;;;5093827;28;20026;-66
2021/09/29 04:47:35;;;;;;;19.42;9.65;;;10.00;99.90;;;;;;5092660;28;20028;-67
2021/09/29 04:50:00;;;;;;;20.45;10.82;;;10.00;99.90;;;;;;5093249;28;20095;-66
2021/09/29 04:52:26;;;;;;;17.73;9.65;;;10.00;99.90;;;;;;5093682;28;20342;-67
2021/09/29 04:54:52;;;;;;;19.73;9.40;;;10.00;99.90;;;;;;5097402;28;20027;-67
2021/09/29 04:57:18;;;;;;;17.55;10.00;;;10.10;99.90;;;;;;5095789;28;20043;-67
2021/09/29 04:59:44;;;;;;;20.92;9.98;;;10.10;99.90;;;;;;5097611;28;20489;-66
2021/09/29 05:02:11;;;;;;;18.85;9.77;;;10.10;99.90;;;;;;5097613;28;20090;-66
2021/09/29 05:04:37;;;;;;;18.35;9.02;;;10.00;99.90;;;;;;5097480;28;20358;-66
2021/09/29 05:07:04;;;;;;;17.77;10.25;;;10.00;99.90;;;;;;5097206;28;20027;-66
2021/09/29 05:09:30;;;;;;;24.92;10.02;;;10.10;99.90;;;;;;5097449;28;20024;-66
2021/09/29 05:12:04;;;;;;;17.60;9.63;;;10.10;99.90;;;;;;5095555;28;20447;-67
2021/09/29 05:14:30;;;;;;;25.60;10.27;;;10.10;99.90;;;;;;5097103;28;20012;-67
2021/09/29 05:16:56;;;;;;;20.40;9.50;;;10.10;99.90;;;;;;5095855;28;20376;-67
2021/09/29 05:19:21;;;;;;;17.85;9.85;;;10.10;99.90;;;;;;5097256;28;20054;-67
2021/09/29 05:21:47;;;;;;;18.88;9.13;;;10.10;99.90;;;;;;5097198;28;20039;-67
2021/09/29 05:24:12;;;;;;;17.80;9.68;;;10.10;99.90;;;;;;5097151;28;20027;-66
2021/09/29 05:26:38;;;;;;;17.80;9.77;;;10.10;99.90;;;;;;5097092;28;20104;-67
2021/09/29 05:29:06;;;;;;;16.08;8.63;;;10.10;99.90;;;;;;5095917;28;20165;-67
2021/09/29 05:31:32;;;;;;;18.42;9.35;;;10.20;99.90;;;;;;5095500;28;20092;-67
2021/09/29 05:33:58;;;;;;;17.00;9.50;;;10.20;99.90;;;;;;5096688;28;20111;-66
2021/09/29 05:36:23;;;;;;;14.85;9.50;;;10.20;99.90;;;;;;5096907;28;20020;-67
2021/09/29 05:38:49;;;;;;;15.93;9.60;;;10.20;99.90;;;;;;5096838;28;20043;-66
2021/09/29 05:41:15;;;;;;;19.15;9.57;;;10.20;99.90;;;;;;5096454;28;20047;-66
2021/09/29 05:43:41;;;;;;;22.10;9.63;;;10.20;99.90;;;;;;5096740;28;20081;-67
2021/09/29 05:46:07;;;;;;;15.82;9.55;;;10.20;99.90;;;;;;5096716;28;20028;-67
2021/09/29 05:48:33;;;;;;;18.00;9.02;;;10.20;99.90;;;;;;5096646;28;20458;-66
2021/09/29 05:50:58;;;;;;;14.15;8.48;;;10.20;99.90;;;;;;5096179;28;20031;-67
2021/09/29 05:53:24;;;;;;;16.35;9.15;;;10.20;99.90;;;;;;5095378;28;20024;-66
2021/09/29 05:55:50;;;;;;;14.77;9.02;;;10.30;99.90;;;;;;5096146;28;20056;-67
2021/09/29 05:58:15;;;;;;;17.70;8.32;;;10.30;99.90;;;;;;5096140;28;20103;-66
2021/09/29 06:00:41;;;;;;;18.88;8.80;;;10.20;99.90;;;;;;5095160;28;20374;-67
2021/09/29 06:03:06;;;;;;;13.27;8.05;;;10.20;99.90;;;;;;5095760;28;20054;-67
2021/09/29 06:05:32;;;;;;;14.18;8.57;;;10.20;99.90;;;;;;5095636;28;20102;-66
2021/09/29 06:07:57;;;;;;;24.08;10.95;;;10.20;99.90;;;;;;5095861;28;20073;-66
2021/09/29 06:10:23;;;;;;;18.13;10.57;;;10.10;99.90;;;;;;5094579;28;20489;-66
2021/09/29 06:12:49;;;;;;;21.35;10.88;;;10.10;99.90;;;;;;5095618;28;20019;-66
2021/09/29 06:15:31;;;;;;;16.30;10.35;;;10.10;99.90;;;;;;5096149;28;20020;-67
2021/09/29 06:17:59;;;;;;;22.00;13.33;;;10.10;99.90;;;;;;5095778;28;20027;-67
2021/09/29 06:20:26;;;;;;;23.13;12.77;;;10.20;99.90;;;;;;5095836;28;20024;-67
2021/09/29 06:22:53;;;;;;;18.10;12.32;;;10.30;99.90;;;;;;5095833;28;20017;-67
2021/09/29 06:25:21;;;;;;;25.80;11.10;;;10.40;99.90;;;;;;5095979;28;20017;-67
2021/09/29 06:27:47;;;;;;;30.25;11.68;;;10.40;99.90;;;;;;5095921;28;20074;-67
2021/09/29 06:30:12;;;;;;;20.67;11.35;;;10.50;99.90;;;;;;5095480;28;20013;-67
2021/09/29 06:32:38;;;;;;;18.65;12.00;;;10.60;99.90;;;;;;5095727;28;20419;-67
2021/09/29 06:35:04;;;;;;;18.83;10.55;;;10.70;99.90;;;;;;5095939;28;20099;-67
2021/09/29 06:37:31;;;;;;;12.73;8.82;;;11.30;99.90;;;;;;5081181;28;20020;-67
2021/09/29 06:39:57;;;;;;;18.80;7.30;;;12.30;99.90;;;;;;5073594;28;20111;-67
2021/09/29 06:42:22;;;;;;;12.13;6.78;;;13.70;99.90;;;;;;5044670;28;20112;-67
2021/09/29 06:44:48;;;;;;;9.13;5.82;;;15.30;99.90;;;;;;5062253;28;20040;-67
2021/09/29 06:47:13;;;;;;;10.95;5.30;;;16.30;99.90;;;;;;5070012;28;20040;-67
2021/09/29 06:49:39;;;;;;;11.68;5.85;;;16.50;99.90;;;;;;5059964;28;20025;-67
2021/09/29 06:52:05;;;;;;;11.43;6.20;;;15.90;99.90;;;;;;5068896;28;20039;-67
2021/09/29 06:54:30;;;;;;;10.38;5.55;;;15.20;99.90;;;;;;5075558;28;20386;-67
2021/09/29 06:56:56;;;;;;;13.00;6.50;;;14.60;99.90;;;;;;5060681;28;20025;-67
2021/09/29 06:59:21;;;;;;;10.30;6.13;;;13.90;99.90;;;;;;5066929;28;20021;-67
2021/09/29 07:01:47;;;;;;;14.95;7.70;;;13.60;99.90;;;;;;5070788;28;20039;-67
2021/09/29 07:04:13;;;;;;;13.05;6.38;;;13.40;99.90;;;;;;5070094;28;20028;-67
2021/09/29 07:06:39;;;;;;;12.75;5.68;;;13.40;99.90;;;;;;5074371;28;20493;-67
2021/09/29 07:09:04;;;;;;;10.45;5.60;;;13.60;99.90;;;;;;5074960;28;20040;-67
2021/09/29 07:11:30;;;;;;;10.05;5.00;;;14.20;99.90;;;;;;5074816;28;20044;-67
2021/09/29 07:13:57;;;;;;;8.57;4.30;;;15.90;99.90;;;;;;5061436;28;20033;-67
2021/09/29 07:16:25;;;;;;;10.20;4.22;;;17.70;99.90;;;;;;5070650;28;20047;-67
2021/09/29 07:18:50;;;;;;;9.52;4.88;;;18.30;99.90;;;;;;5074433;28;20450;-67
2021/09/29 07:21:16;;;;;;;10.13;3.85;;;18.00;99.90;;;;;;5084585;28;20024;-68
2021/09/29 07:23:42;;;;;;;7.28;3.80;;;19.50;99.90;;;;;;5082930;28;20035;-68
2021/09/29 07:26:08;;;;;;;9.35;4.13;;;20.60;99.90;;;;;;5073989;28;20021;-68
2021/09/29 07:28:33;;;;;;;7.75;3.28;;;20.60;99.90;;;;;;5061693;28;20044;-68
2021/09/29 07:30:59;;;;;;;10.05;3.67;;;21.20;99.90;;;;;;5083988;28;20020;-68
2021/09/29 07:33:24;;;;;;;10.50;3.60;;;20.40;99.90;;;;;;5080922;28;20051;-68
2021/09/29 07:35:50;;;;;;;11.43;4.05;;;20.40;99.90;;;;;;5090637;28;20488;-68
2021/09/29 07:38:16;;;;;;;5.88;3.17;;;20.10;99.90;;;;;;5073684;28;20110;-67
2021/09/29 07:40:42;;;;;;;10.93;2.97;;;19.50;99.90;;;;;;5053540;28;20412;-68
2021/09/29 07:43:08;;;;;;;7.55;3.10;;;19.90;99.90;;;;;;5067648;28;20117;-68
2021/09/29 07:45:34;;;;;;;7.63;3.63;;;19.90;99.90;;;;;;5065517;28;20510;-68
2021/09/29 07:47:59;;;;;;;10.68;4.88;;;19.40;99.90;;;;;;5083690;28;20411;-68
2021/09/29 07:50:26;;;;;;;8.48;3.17;;;18.40;99.90;;;;;;5064311;28;20017;-68
2021/09/29 07:52:52;;;;;;;8.02;2.92;;;17.30;99.90;;;;;;5058310;28;20029;-68
2021/09/29 07:55:18;;;;;;;9.93;3.05;;;16.90;99.90;;;;;;5099723;28;20025;-67
2021/09/29 07:57:45;;;;;;;8.10;2.92;;;16.40;99.90;;;;;;5066896;28;20028;-68
2021/09/29 08:00:13;;;;;;;10.10;2.90;;;15.80;99.90;;;;;;5061099;28;20017;-67
2021/09/29 08:02:39;;;;;;;9.20;3.45;;;15.30;99.90;;;;;;5073242;28;20028;-67
2021/09/29 08:05:05;;;;;;;12.55;3.45;;;15.10;99.90;;;;;;5071371;28;20482;-68
2021/09/29 08:07:31;;;;;;;11.25;3.15;;;15.00;99.90;;;;;;5060231;28;20037;-67
2021/09/29 08:09:56;;;;;;;5.47;2.75;;;14.80;99.90;;;;;;5084973;28;20025;-68
2021/09/29 08:12:22;;;;;;;6.53;3.00;;;14.50;99.90;;;;;;5056067;28;20040;-67
2021/09/29 08:14:48;;;;;;;7.72;3.17;;;14.40;99.90;;;;;;5063636;28;20103;-67
2021/09/29 08:17:13;;;;;;;10.43;3.35;;;14.40;99.90;;;;;;5093511;28;20186;-68
2021/09/29 08:19:39;;;;;;;13.70;3.55;;;14.40;99.90;;;;;;5080239;28;20013;-67
2021/09/29 08:22:07;;;;;;;11.27;3.08;;;14.30;99.90;;;;;;5072613;28;20180;-68
2021/09/29 08:24:39;;;;;;;9.50;3.58;;;14.30;99.90;;;;;;5057606;28;20025;-67
2021/09/29 08:27:12;;;;;;;11.27;3.75;;;14.20;99.90;;;;;;5066720;28;20024;-68
2021/09/29 08:29:46;;;;;;;12.75;3.97;;;14.30;99.90;;;;;;5081108;28;20031;-68
2021/09/29 08:32:27;;;;;;;9.45;3.53;;;14.40;99.90;;;;;;5086993;28;20032;-68
2021/09/29 08:35:09;;;;;;;9.45;3.55;;;14.50;99.90;;;;;;5060957;28;20025;-67
2021/09/29 08:37:40;;;;;;;10.95;3.63;;;14.50;99.90;;;;;;5056472;28;20028;-68
2021/09/29 08:45:41;;;;;;;13.23;3.00;;;15.10;99.90;;;;;;5069513;28;20810;-68
2021/09/29 08:51:12;;;;;;;;;;;15.50;99.90;;;;;;5057338;28;20029;-68
2021/09/29 09:18:17;;;;;;;10.82;3.15;;;14.80;99.90;;;;;;5105446;27;20375;-68
2021/09/29 09:20:50;;;;;;;7.82;2.60;;;14.70;99.90;;;;;;5111385;28;20024;-68
2021/09/29 09:23:15;;;;;;;7.00;3.30;;;14.70;99.90;;;;;;5105558;28;20099;-68
2021/09/29 09:25:44;;;;;;;10.18;2.90;;;14.60;99.90;;;;;;5089359;28;20063;-68
2021/09/29 09:28:28;;;;;;;9.10;3.20;;;14.60;99.90;;;;;;5090997;28;20020;-68
2021/09/29 09:30:57;;;;;;;8.98;3.10;;;14.60;99.90;;;;;;5090575;28;20521;-68
2021/09/29 09:33:25;;;;;;;7.00;2.72;;;14.60;99.90;;;;;;5094623;28;20505;-68
2021/09/29 09:35:51;;;;;;;8.77;3.25;;;14.60;99.90;;;;;;5108307;28;20125;-68
2021/09/29 09:38:22;;;;;;;7.72;3.22;;;14.60;99.90;;;;;;5108382;28;20070;-68
2021/09/29 09:40:58;;;;;;;11.18;3.63;;;14.60;99.90;;;;;;5093479;28;20032;-68
2021/09/29 09:43:26;;;;;;;8.95;3.58;;;14.50;99.90;;;;;;5090008;28;20454;-67
2021/09/29 09:45:52;;;;;;;12.30;3.33;;;14.40;99.90;;;;;;5106327;28;20028;-68
2021/09/29 09:48:23;;;;;;;10.48;3.80;;;14.20;99.90;;;;;;5103419;28;20401;-67
2021/09/29 09:50:55;;;;;;;9.65;3.28;;;14.20;99.90;;;;;;5107520;28;20077;-68
2021/09/29 09:53:20;;;;;;;10.57;3.70;;;14.10;99.90;;;;;;5109025;28;20024;-67
2021/09/29 09:55:46;;;;;;;9.32;3.70;;;13.90;99.90;;;;;;5109367;28;20024;-67
2021/09/29 09:58:12;;;;;;;11.20;2.97;;;13.90;99.90;;;;;;5109092;28;20036;-67
2021/09/29 10:00:37;;;;;;;8.40;2.67;;;13.90;99.90;;;;;;5108909;28;20027;-67
2021/09/29 10:03:04;;;;;;;8.00;3.85;;;13.90;99.90;;;;;;5109284;28;20012;-67
2021/09/29 10:05:31;;;;;;;6.47;3.63;;;13.90;99.90;;;;;;5108651;28;20054;-67
2021/09/29 10:07:59;;;;;;;9.02;3.40;;;13.90;99.90;;;;;;5108043;28;20020;-68
2021/09/29 10:11:04;;;;;;;8.07;3.30;;;13.90;99.90;;;;;;5090009;28;20027;-68
2021/09/29 10:14:07;;;;;;;6.50;3.13;;;14.00;99.90;;;;;;5105802;28;20555;-68
2021/09/29 10:27:56;;;;;;;8.05;4.43;;;14.20;99.90;;;;;;5105261;28;20032;-67
2021/09/29 10:30:33;;;;;;;6.68;3.58;;;14.10;99.90;;;;;;5093723;28;20073;-67
2021/09/29 10:33:00;;;;;;;8.98;3.85;;;14.00;99.90;;;;;;5094235;28;20461;-67
2021/09/29 10:35:34;;;;;;;11.15;3.33;;;13.90;99.90;;;;;;5095448;28;20055;-67
2021/09/29 10:43:37;;;;;;;8.75;3.50;;;13.90;99.90;;;;;;5087251;28;20024;-67
2021/09/29 10:46:52;;;;;;;6.88;2.95;;;14.00;99.90;;;;;;5094764;28;20081;-67
2021/09/29 10:49:07;;;;;;;6.25;2.42;;;13.90;99.90;;;;;;5094833;28;20031;-67
2021/09/29 10:52:02;;;;;;;10.85;3.15;;;13.90;99.90;;;;;;5093210;28;20067;-67
2021/09/29 11:09:10;;;;;;;9.75;4.10;;;13.00;99.90;;;;;;5092877;28;20027;-67
2021/09/29 11:12:11;;;;;;;6.68;3.22;;;13.10;99.90;;;;;;5094775;28;20020;-67
2021/09/29 11:28:42;;;;;;;10.40;4.32;;;12.70;99.90;;;;;;5091505;28;20485;-67
2021/09/29 11:31:13;;;;;;;10.00;5.07;;;12.70;99.90;;;;;;5093740;28;20036;-67
2021/09/29 11:33:47;;;;;;;8.77;4.03;;;12.60;99.90;;;;;;5092460;28;20024;-66
2021/09/29 11:36:30;;;;;;;6.35;3.65;;;12.60;99.90;;;;;;5093400;28;20031;-68
2021/09/29 11:39:18;;;;;;;6.80;4.57;;;12.70;99.90;;;;;;5093474;28;20025;-66
2021/09/29 12:07:55;;;;;;;7.63;3.75;;;13.10;99.90;;;;;;5093830;28;20051;-68
2021/09/29 12:09:55;;;;;;;5.13;3.80;;;13.30;99.90;;;;;;5073770;28;20055;-68
2021/09/29 12:12:28;;;;;;;4.55;3.90;;;13.20;99.90;;;;;;5084176;28;20028;-67
2021/09/29 12:14:57;;;;;;;7.57;5.13;;;13.20;99.90;;;;;;5094846;28;20099;-67
2021/09/29 12:17:27;;;;;;;7.75;4.82;;;13.20;99.90;;;;;;5092524;28;20044;-68
2021/09/29 12:19:57;;;;;;;5.97;5.47;;;13.30;99.90;;;;;;5092021;28;20035;-68
2021/09/29 12:22:24;;;;;;;7.22;5.90;;;13.20;99.90;;;;;;5090065;28;20016;-68
2021/09/29 12:25:01;;;;;;;6.88;6.22;;;13.20;99.90;;;;;;5100363;28;20019;-67
2021/09/29 12:30:34;;;;;;;9.27;6.15;;;13.20;99.90;;;;;;5109793;27;20374;-67
2021/09/29 12:33:10;;;;;;;7.03;5.90;;;13.20;99.90;;;;;;5111302;28;20099;-67
2021/09/29 12:35:51;;;;;;;6.63;6.00;;;13.30;99.90;;;;;;5107170;28;20031;-67
2021/09/29 12:38:18;;;;;;;7.30;6.10;;;13.50;99.90;;;;;;5104218;28;20035;-67
2021/09/29 12:40:46;;;;;;;7.18;6.47;;;13.50;99.90;;;;;;5091579;28;20032;-68
2021/09/29 12:43:14;;;;;;;9.85;7.22;;;13.40;99.90;;;;;;5109928;28;20028;-67
2021/09/29 12:45:43;;;;;;;8.13;7.30;;;13.30;99.90;;;;;;5110061;28;20058;-67
2021/09/29 12:48:11;;;;;;;11.40;8.65;;;13.20;99.90;;;;;;5109284;28;20016;-67
2021/09/29 12:50:53;;;;;;;10.57;9.20;;;13.00;99.90;;;;;;5092780;28;20077;-67
2021/09/29 12:53:27;;;;;;;9.02;8.13;;;13.00;99.90;;;;;;5107997;28;20056;-67
2021/09/29 12:55:58;;;;;;;10.65;8.20;;;13.00;99.90;;;;;;5109079;28;20028;-67
2021/09/29 12:58:24;;;;;;;8.98;7.35;;;12.90;99.90;;;;;;5108349;28;20067;-67
2021/09/29 13:00:50;;;;;;;10.27;7.00;;;12.70;99.90;;;;;;5114499;28;20441;-67
2021/09/29 13:03:16;;;;;;;9.10;7.38;;;12.60;99.90;;;;;;5131148;28;20449;-67
2021/09/29 13:05:42;;;;;;;11.60;6.07;;;12.60;99.90;;;;;;5120389;27;20408;-67
2021/09/29 13:08:08;;;;;;;11.48;7.07;;;12.60;99.90;;;;;;5109248;28;20023;-67
2021/09/29 13:10:34;;;;;;;10.25;7.47;;;12.70;99.90;;;;;;5109168;28;20490;-67
2021/09/29 13:12:59;;;;;;;8.77;6.97;;;12.80;99.90;;;;;;5110176;28;20373;-67
2021/09/29 13:15:25;;;;;;;7.03;6.25;;;12.70;99.90;;;;;;5109525;28;20024;-67
2021/09/29 13:17:53;;;;;;;7.88;5.50;;;12.60;99.90;;;;;;5108680;28;20065;-67
2021/09/29 13:20:25;;;;;;;6.80;5.72;;;12.60;99.90;;;;;;5108394;28;20031;-68
2021/09/29 13:22:58;;;;;;;7.23;5.53;;;12.70;99.90;;;;;;5107697;28;20020;-67
2021/09/29 13:36:34;;;;;;;8.43;5.75;;;12.90;99.90;;;;;;5109416;28;20090;-67
2021/09/29 13:39:03;;;;;;;6.05;4.80;;;13.30;99.90;;;;;;5108030;28;20027;-67
2021/09/29 13:41:28;;;;;;;5.47;4.80;;;13.50;99.90;;;;;;5095517;28;20145;-68
2021/09/29 13:43:54;;;;;;;8.13;5.90;;;13.90;99.90;;;;;;5095380;28;20068;-67
2021/09/29 13:46:19;;;;;;;7.95;4.82;;;13.90;99.90;;;;;;5093678;28;20032;-68
2021/09/29 13:48:45;;;;;;;5.22;4.47;;;13.80;99.90;;;;;;5093397;28;20032;-67
2021/09/29 13:51:10;;;;;;;6.15;4.30;;;13.60;99.90;;;;;;5115846;28;20019;-68
2021/09/29 13:53:36;;;;;;;6.35;4.60;;;13.60;99.90;;;;;;5115384;28;20384;-68
2021/09/29 13:56:04;;;;;;;8.45;4.90;;;13.40;99.90;;;;;;5097302;28;20024;-67
2021/09/29 13:58:41;;;;;;;6.07;4.90;;;13.40;99.90;;;;;;5094012;28;20024;-68
2021/09/29 14:01:29;;;;;;;13.35;6.53;;;13.20;99.90;;;;;;5091411;28;20024;-67
2021/09/29 14:31:34;;;;;;;4.10;1.75;;;10.60;99.90;;;;;;5094725;28;20504;-71
2021/09/29 14:33:59;;;;;;;2.67;1.60;;;10.60;99.90;;;;;;5095530;28;20410;-70
2021/09/29 14:36:25;;;;;;;2.58;2.08;;;10.80;99.90;;;;;;5093263;28;20074;-70
2021/09/29 14:38:50;;;;;;;5.50;1.73;;;10.80;99.90;;;;;;5094711;28;20056;-70
2021/09/29 14:41:16;;;;;;;2.88;1.70;;;10.90;99.90;;;;;;5095191;28;20024;-70
2021/09/29 14:43:42;;;;;;;5.88;1.98;;;11.00;99.90;;;;;;5094854;28;20107;-70
2021/09/29 14:46:08;;;;;;;2.53;1.77;;;11.00;99.90;;;;;;5094663;28;20490;-70
2021/09/29 14:48:34;;;;;;;4.85;2.17;;;11.00;99.90;;;;;;5093322;28;20031;-70
2021/09/29 14:50:59;;;;;;;3.97;2.15;;;11.00;99.90;;;;;;5092780;28;20031;-69
2021/09/29 14:53:25;;;;;;;5.00;2.25;;;11.00;99.90;;;;;;5093258;28;20027;-69
2021/09/29 14:55:50;;;;;;;7.28;2.60;;;11.00;99.90;;;;;;5093565;28;20028;-70
2021/09/29 14:58:16;;;;;;;5.13;3.10;;;11.10;99.90;;;;;;5094681;28;20027;-70
2021/09/29 15:00:42;;;;;;;5.43;2.90;;;11.10;99.90;;;;;;5094287;28;20535;-70
2021/09/29 15:03:10;;;;;;;3.28;2.65;;;11.20;99.90;;;;;;5094919;28;20028;-70
2021/09/29 15:05:35;;;;;;;7.65;2.83;;;11.30;99.90;;;;;;5093898;28;20020;-70
2021/09/29 15:08:01;;;;;;;3.35;1.95;;;11.40;99.90;;;;;;5092541;28;20028;-71